createdAt,value
2024-04-13T00:00:15.876Z,8.86
2024-04-13T00:06:18.887Z,8.83
2024-04-13T00:12:21.272Z,8.82
2024-04-13T00:18:23.613Z,8.80
2024-04-13T00:24:25.948Z,8.77
2024-04-13T00:30:29.553Z,8.77
2024-04-13T00:36:36.630Z,8.72
2024-04-13T00:42:39.143Z,8.67
2024-04-13T00:48:41.656Z,8.64
2024-04-13T00:54:46.536Z,8.59
2024-04-13T01:00:49.144Z,8.49
2024-04-13T01:06:52.111Z,8.40
2024-04-13T01:12:54.580Z,8.32
2024-04-13T01:18:57.491Z,8.25
2024-04-13T01:24:59.785Z,8.18
2024-04-13T01:31:03.192Z,8.11
2024-04-13T01:37:08.525Z,8.00
2024-04-13T01:43:10.893Z,7.88
2024-04-13T01:49:14.201Z,7.79
2024-04-13T01:55:16.532Z,7.70
2024-04-13T02:01:18.991Z,7.59
2024-04-13T02:07:21.452Z,7.52
2024-04-13T02:13:23.707Z,7.47
2024-04-13T02:19:26.062Z,7.42
2024-04-13T02:25:28.447Z,7.35
2024-04-13T02:31:30.725Z,7.29
2024-04-13T02:37:33.065Z,7.26
2024-04-13T02:43:37.339Z,7.22
2024-04-13T02:49:40.338Z,7.15
2024-04-13T02:55:43.075Z,7.11
2024-04-13T03:01:45.495Z,7.04
2024-04-13T03:07:47.820Z,7.03
2024-04-13T03:13:50.685Z,7.05
2024-04-13T03:19:54.701Z,7.03
2024-04-13T03:25:57.118Z,6.98
2024-04-13T03:31:59.518Z,6.97
2024-04-13T03:38:02.073Z,7.05
2024-04-13T03:44:04.381Z,7.02
2024-04-13T03:50:08.261Z,7.04
2024-04-13T03:56:11.519Z,6.97
2024-04-13T04:02:13.969Z,6.86
2024-04-13T04:08:16.400Z,6.81
2024-04-13T04:14:18.812Z,6.76
2024-04-13T04:20:22.179Z,6.73
2024-04-13T04:26:24.470Z,6.70
2024-04-13T04:32:26.816Z,6.68
2024-04-13T04:38:29.161Z,6.72
2024-04-13T04:44:31.503Z,6.80
2024-04-13T04:50:34.273Z,6.97
2024-04-13T04:56:36.543Z,7.11
2024-04-13T05:02:38.897Z,7.28
2024-04-13T05:08:41.228Z,7.49
2024-04-13T05:14:43.537Z,7.74
2024-04-13T05:20:47.202Z,8.03
2024-04-13T05:26:49.673Z,8.46
2024-04-13T05:32:53.537Z,9.31
2024-04-13T05:38:56.214Z,12.34
2024-04-13T05:44:59.423Z,14.91
2024-04-13T05:51:01.720Z,16.28
2024-04-13T05:57:04.277Z,17.96
2024-04-13T06:03:07.366Z,18.83
2024-04-13T06:09:10.317Z,19.81
2024-04-13T06:15:12.873Z,20.52
2024-04-13T06:21:15.221Z,20.34
2024-04-13T06:27:18.443Z,20.73
2024-04-13T06:33:21.216Z,21.40
2024-04-13T06:39:23.760Z,22.51
2024-04-13T06:45:26.065Z,23.33
2024-04-13T06:51:28.411Z,23.10
2024-04-13T06:57:31.826Z,23.16
2024-04-13T07:03:34.290Z,23.42
2024-04-13T07:09:36.740Z,24.16
2024-04-13T07:15:39.156Z,24.99
2024-04-13T07:21:41.540Z,27.23
2024-04-13T07:27:44.118Z,28.37
2024-04-13T07:33:46.723Z,28.46
2024-04-13T07:39:49.221Z,29.23
2024-04-13T07:45:51.703Z,30.35
2024-04-13T07:51:54.084Z,30.66
2024-04-13T07:57:56.367Z,30.59
2024-04-13T08:03:59.178Z,30.92
2024-04-13T08:10:01.903Z,31.94
2024-04-13T08:16:06.124Z,31.93
2024-04-13T08:22:10.721Z,31.69
2024-04-13T08:28:13.564Z,32.41
2024-04-13T08:34:20.346Z,32.89
2024-04-13T08:40:22.934Z,32.64
2024-04-13T08:46:26.233Z,32.80
2024-04-13T08:52:30.599Z,33.04
2024-04-13T08:58:36.429Z,33.15
2024-04-13T09:04:38.839Z,33.67
2024-04-13T09:10:43.869Z,35.11
2024-04-13T09:16:46.996Z,34.27
2024-04-13T09:22:49.657Z,34.53
2024-04-13T09:28:52.559Z,34.74
2024-04-13T09:34:55.820Z,34.40
2024-04-13T09:41:01.808Z,35.26
2024-04-13T09:47:04.319Z,35.83
2024-04-13T09:53:07.096Z,36.32
2024-04-13T09:59:13.891Z,36.43
2024-04-13T10:05:16.395Z,35.71
2024-04-13T10:11:22.834Z,36.52
2024-04-13T10:17:25.874Z,36.90
2024-04-13T10:23:28.269Z,37.02
2024-04-13T10:29:43.123Z,37.33
2024-04-13T10:36:03.887Z,36.61
2024-04-13T10:42:12.834Z,36.52
2024-04-13T10:48:15.418Z,36.05
2024-04-13T10:54:17.868Z,35.89
2024-04-13T11:00:21.424Z,33.83
2024-04-13T11:06:23.768Z,34.58
2024-04-13T11:12:26.229Z,34.91
2024-04-13T11:18:29.031Z,35.30
2024-04-13T11:24:31.838Z,35.17
2024-04-13T11:30:34.946Z,35.28
2024-04-13T11:36:37.455Z,34.92
2024-04-13T11:42:51.163Z,34.30
2024-04-13T11:48:56.017Z,32.60
2024-04-13T11:54:58.584Z,31.81
2024-04-13T12:01:03.296Z,32.43
2024-04-13T12:07:05.900Z,32.55
2024-04-13T12:13:08.405Z,32.03
2024-04-13T12:19:11.897Z,32.26
2024-04-13T12:25:14.384Z,31.87
2024-04-13T12:31:16.716Z,31.55
2024-04-13T12:37:19.115Z,31.56
2024-04-13T12:43:22.413Z,31.62
2024-04-13T12:49:24.784Z,31.55
2024-04-13T12:55:27.416Z,31.44
2024-04-13T13:01:29.894Z,31.29
2024-04-13T13:07:32.228Z,30.84
2024-04-13T13:13:34.796Z,30.15
2024-04-13T13:19:37.156Z,30.12
2024-04-13T13:25:40.081Z,29.35
2024-04-13T13:31:43.125Z,29.05
2024-04-13T13:37:45.510Z,28.87
2024-04-13T13:43:47.812Z,28.81
2024-04-13T13:49:50.100Z,28.96
2024-04-13T13:55:54.545Z,28.77
2024-04-13T14:01:56.982Z,28.46
2024-04-13T14:07:59.384Z,28.20
2024-04-13T14:14:01.757Z,28.12
2024-04-13T14:20:04.821Z,27.47
2024-04-13T14:26:07.175Z,27.41
2024-04-13T14:32:10.589Z,27.72
2024-04-13T14:38:12.868Z,27.80
2024-04-13T14:44:15.154Z,27.24
2024-04-13T14:50:17.444Z,26.99
2024-04-13T14:56:21.587Z,26.93
2024-04-13T15:02:25.425Z,26.50
2024-04-13T15:08:27.994Z,26.24
2024-04-13T15:14:30.290Z,25.94
2024-04-13T15:20:32.777Z,26.07
2024-04-13T15:26:35.153Z,26.21
2024-04-13T15:32:37.557Z,26.11
2024-04-13T15:38:40.472Z,25.99
2024-04-13T15:44:43.314Z,25.75
2024-04-13T15:50:45.786Z,25.69
2024-04-13T15:56:48.069Z,25.52
2024-04-13T16:02:50.423Z,25.23
2024-04-13T16:08:52.693Z,25.10
2024-04-13T16:14:54.963Z,24.89
2024-04-13T16:20:58.439Z,24.73
2024-04-13T16:27:00.768Z,24.65
2024-04-13T16:33:04.970Z,24.47
2024-04-13T16:39:07.294Z,24.25
2024-04-13T16:45:09.757Z,24.10
2024-04-13T16:51:12.086Z,23.78
2024-04-13T16:57:14.437Z,23.64
2024-04-13T17:03:17.041Z,23.31
2024-04-13T17:09:21.847Z,23.10
2024-04-13T17:15:24.271Z,22.90
2024-04-13T17:21:26.635Z,22.67
2024-04-13T17:27:28.998Z,22.34
2024-04-13T17:33:31.345Z,21.97
2024-04-13T17:39:33.799Z,21.64
2024-04-13T17:45:36.120Z,21.20
2024-04-13T17:51:38.515Z,20.69
2024-04-13T17:57:41.683Z,20.41
2024-04-13T18:03:46.243Z,20.08
2024-04-13T18:09:48.672Z,19.71
2024-04-13T18:15:51.158Z,19.39
2024-04-13T18:21:53.609Z,19.01
2024-04-13T18:27:56.148Z,18.63
2024-04-13T18:33:58.618Z,18.37
2024-04-13T18:40:01.126Z,17.96
2024-04-13T18:46:05.029Z,17.77
2024-04-13T18:52:07.418Z,17.54
2024-04-13T18:58:10.901Z,17.25
2024-04-13T19:04:13.574Z,16.99
2024-04-13T19:10:16.315Z,16.72
2024-04-13T19:16:18.796Z,16.38
2024-04-13T19:22:22.687Z,15.96
2024-04-13T19:28:25.995Z,15.69
2024-04-13T19:34:28.359Z,15.45
2024-04-13T19:40:31.002Z,15.29
2024-04-13T19:46:33.321Z,15.11
2024-04-13T19:52:35.587Z,14.94
2024-04-13T19:58:37.936Z,14.76
2024-04-13T20:04:40.499Z,14.58
2024-04-13T20:10:43.098Z,14.42
2024-04-13T20:17:04.033Z,14.26
2024-04-13T20:23:06.321Z,14.09
2024-04-13T20:29:08.623Z,13.97
2024-04-13T20:35:11.188Z,13.79
2024-04-13T20:41:13.503Z,13.63
2024-04-13T20:47:15.856Z,13.46
2024-04-13T20:53:18.170Z,13.28
2024-04-13T20:59:21.134Z,13.11
2024-04-13T21:05:24.314Z,12.93
2024-04-13T21:11:26.688Z,12.74
2024-04-13T21:17:29.097Z,12.61
2024-04-13T21:23:31.442Z,12.45
2024-04-13T21:29:37.145Z,12.32
2024-04-13T21:35:39.613Z,12.20
2024-04-13T21:41:41.944Z,12.06
2024-04-13T21:47:44.281Z,11.95
2024-04-13T21:53:46.862Z,11.90
2024-04-13T21:59:49.144Z,11.82
2024-04-13T22:05:51.543Z,11.76
2024-04-13T22:11:54.111Z,11.72
2024-04-13T22:17:56.707Z,11.66
2024-04-13T22:23:59.171Z,11.57
2024-04-13T22:30:01.780Z,11.47
2024-04-13T22:36:04.257Z,11.40
2024-04-13T22:42:06.864Z,11.34
2024-04-13T22:48:09.626Z,11.24
2024-04-13T22:54:12.428Z,11.17
2024-04-13T23:00:14.910Z,11.06
2024-04-13T23:06:17.207Z,10.95
2024-04-13T23:12:21.254Z,10.88
2024-04-13T23:18:23.391Z,10.79
2024-04-13T23:24:26.071Z,10.72
2024-04-13T23:30:28.979Z,10.67
2024-04-13T23:36:31.407Z,10.62
2024-04-13T23:42:33.797Z,10.56
2024-04-13T23:48:36.132Z,10.54
2024-04-13T23:54:38.556Z,10.47
